createdAt,value
2019-02-05T00:02:28.643Z,32.35
2019-02-05T00:04:59.434Z,40.48
2019-02-05T00:07:30.720Z,39.05
2019-02-05T00:10:01.449Z,31.68
2019-02-05T00:12:32.185Z,38.95
2019-02-05T00:15:06.470Z,29.23
2019-02-05T00:17:37.137Z,40.23
2019-02-05T00:20:08.163Z,40.55
2019-02-05T00:22:38.933Z,35.68
2019-02-05T00:25:09.626Z,40.03
2019-02-05T00:27:40.298Z,33.28
2019-02-05T00:30:13.882Z,41.92
2019-02-05T00:32:44.934Z,42.62
2019-02-05T00:35:15.575Z,36.20
2019-02-05T00:37:46.336Z,49.13
2019-02-05T00:40:18.581Z,40.00
2019-02-05T00:42:50.778Z,40.60
2019-02-05T00:45:21.891Z,33.20
2019-02-05T00:47:52.566Z,36.58
2019-02-05T00:50:23.205Z,42.15
2019-02-05T00:52:55.463Z,43.60
2019-02-05T00:55:26.282Z,26.82
2019-02-05T00:57:57.025Z,24.60
2019-02-05T01:00:31.891Z,24.50
2019-02-05T01:03:02.562Z,27.00
2019-02-05T01:05:34.163Z,26.73
2019-02-05T01:08:04.909Z,26.55
2019-02-05T01:10:35.622Z,24.63
2019-02-05T01:13:07.837Z,26.95
2019-02-05T01:15:38.549Z,25.55
2019-02-05T01:18:09.367Z,24.87
2019-02-05T01:20:40.086Z,26.30
2019-02-05T01:23:10.762Z,25.37
2019-02-05T01:25:41.589Z,27.80
2019-02-05T01:28:13.787Z,26.85
2019-02-05T01:30:44.505Z,32.33
2019-02-05T01:33:15.174Z,35.78
2019-02-05T01:35:45.822Z,25.57
2019-02-05T01:38:16.581Z,28.42
2019-02-05T01:40:47.294Z,25.40
2019-02-05T01:43:17.967Z,26.42
2019-02-05T01:45:48.683Z,30.72
2019-02-05T01:48:19.418Z,30.10
2019-02-05T01:50:50.557Z,29.77
2019-02-05T01:53:21.346Z,30.25
2019-02-05T01:55:52.053Z,27.95
2019-02-05T01:58:22.726Z,25.52
2019-02-05T02:00:53.441Z,25.10
2019-02-05T02:03:24.607Z,24.07
2019-02-05T02:05:55.963Z,22.77
2019-02-05T02:08:26.703Z,22.93
2019-02-05T02:10:57.423Z,24.05
2019-02-05T02:13:28.167Z,26.00
2019-02-05T02:15:58.946Z,29.80
2019-02-05T02:18:29.618Z,25.85
2019-02-05T02:21:00.338Z,27.55
2019-02-05T02:23:31.083Z,28.87
2019-02-05T02:26:01.802Z,24.80
2019-02-05T02:28:32.480Z,24.43
2019-02-05T02:31:03.492Z,22.30
2019-02-05T02:33:34.247Z,21.00
2019-02-05T02:36:04.965Z,21.73
2019-02-05T02:38:35.709Z,33.75
2019-02-05T02:41:06.359Z,35.38
2019-02-05T02:43:37.514Z,31.42
2019-02-05T02:46:08.161Z,22.73
2019-02-05T02:48:38.899Z,21.68
2019-02-05T02:51:09.687Z,36.35
2019-02-05T02:53:40.574Z,28.32
2019-02-05T02:56:11.299Z,27.32
2019-02-05T02:58:41.979Z,28.00
2019-02-05T03:01:12.698Z,22.55
2019-02-05T03:03:43.506Z,28.17
2019-02-05T03:06:16.662Z,26.50
2019-02-05T03:08:47.487Z,22.67
2019-02-05T03:11:30.908Z,19.87
2019-02-05T03:14:01.654Z,19.62
2019-02-05T03:16:32.534Z,19.90
2019-02-05T03:19:03.285Z,27.50
2019-02-05T03:21:34.001Z,30.08
2019-02-05T03:24:05.160Z,32.98
2019-02-05T03:26:35.875Z,26.07
2019-02-05T03:29:06.617Z,29.37
2019-02-05T03:31:37.350Z,25.15
2019-02-05T03:34:08.171Z,23.90
2019-02-05T03:36:38.906Z,26.65
2019-02-05T03:39:10.054Z,20.32
2019-02-05T03:41:40.766Z,17.32
2019-02-05T03:44:11.517Z,18.95
2019-02-05T03:46:42.239Z,20.68
2019-02-05T03:49:12.986Z,23.87
2019-02-05T03:51:46.968Z,28.65
2019-02-05T03:54:26.765Z,24.72
2019-02-05T03:57:03.458Z,23.35
2019-02-05T03:59:43.500Z,18.65
2019-02-05T04:02:32.718Z,20.05
2019-02-05T04:05:21.683Z,19.25
2019-02-05T04:07:58.558Z,18.15
2019-02-05T04:10:44.417Z,19.57
2019-02-05T04:13:30.181Z,20.08
2019-02-05T04:16:12.822Z,22.52
2019-02-05T04:18:52.433Z,22.65
2019-02-05T04:21:35.269Z,22.07
2019-02-05T04:24:18.146Z,20.55
2019-02-05T04:27:13.440Z,20.23
2019-02-05T04:30:02.428Z,22.27
2019-02-05T04:32:59.403Z,21.60
2019-02-05T04:35:45.209Z,21.30
2019-02-05T04:38:29.080Z,22.52
2019-02-05T04:41:27.065Z,21.20
2019-02-05T04:44:22.562Z,24.77
2019-02-05T04:47:08.528Z,26.62
2019-02-05T04:49:58.830Z,33.85
2019-02-05T04:52:38.526Z,31.05
2019-02-05T04:55:30.374Z,24.43
2019-02-05T04:58:06.753Z,29.02
2019-02-05T05:00:43.757Z,24.55
2019-02-05T05:03:24.392Z,28.92
2019-02-05T05:06:04.426Z,32.05
2019-02-05T05:08:58.548Z,32.08
2019-02-05T05:11:29.377Z,25.05
2019-02-05T05:14:00.110Z,26.80
2019-02-05T05:16:30.858Z,26.48
2019-02-05T05:19:01.787Z,25.50
2019-02-05T05:21:32.617Z,24.18
2019-02-05T05:24:03.469Z,23.27
2019-02-05T05:26:34.225Z,24.00
2019-02-05T05:29:05.318Z,26.25
2019-02-05T05:31:36.065Z,26.23
2019-02-05T05:34:06.714Z,25.30
2019-02-05T05:36:42.329Z,23.80
2019-02-05T05:39:13.120Z,28.32
2019-02-05T05:41:43.812Z,24.05
2019-02-05T05:44:14.529Z,25.40
2019-02-05T05:46:45.293Z,29.12
2019-02-05T05:49:16.071Z,28.32
2019-02-05T05:51:46.889Z,28.92
2019-02-05T05:54:17.615Z,30.68
2019-02-05T05:56:48.374Z,42.40
2019-02-05T05:59:20.165Z,44.75
2019-02-05T06:01:50.994Z,30.02
2019-02-05T06:04:22.026Z,28.23
2019-02-05T06:06:53.346Z,26.20
2019-02-05T06:09:25.122Z,26.90
2019-02-05T06:11:55.877Z,24.00
2019-02-05T06:14:26.608Z,23.73
2019-02-05T06:16:57.356Z,23.35
2019-02-05T06:19:28.377Z,24.12
2019-02-05T06:21:59.202Z,22.55
2019-02-05T06:24:31.433Z,24.25
2019-02-05T06:27:02.186Z,46.92
2019-02-05T06:29:32.920Z,26.65
2019-02-05T06:32:03.674Z,21.82
2019-02-05T06:34:34.400Z,60.58
2019-02-05T06:37:05.153Z,61.88
2019-02-05T06:39:35.882Z,21.40
2019-02-05T06:42:06.637Z,94.77
2019-02-05T06:44:37.438Z,36.77
2019-02-05T06:47:08.503Z,187.80
2019-02-05T06:49:41.867Z,85.77
2019-02-05T06:52:12.765Z,28.15
2019-02-05T06:54:43.576Z,198.38
2019-02-05T06:57:14.347Z,295.55
2019-02-05T06:59:46.056Z,41.98
2019-02-05T07:02:16.882Z,191.00
2019-02-05T07:04:47.622Z,326.77
2019-02-05T07:07:18.502Z,396.40
2019-02-05T07:09:50.969Z,67.82
2019-02-05T07:12:21.730Z,49.88
2019-02-05T07:14:52.858Z,34.48
2019-02-05T07:17:25.126Z,42.55
2019-02-05T07:19:55.915Z,43.38
2019-02-05T07:22:26.700Z,31.85
2019-02-05T07:24:57.418Z,38.70
2019-02-05T07:27:28.239Z,38.05
2019-02-05T07:29:58.961Z,39.20
2019-02-05T07:32:29.715Z,41.75
2019-02-05T07:35:04.244Z,32.65
2019-02-05T07:37:35.070Z,115.57
2019-02-05T07:40:11.384Z,36.85
2019-02-05T07:42:42.425Z,35.60
2019-02-05T07:45:16.054Z,33.98
2019-02-05T07:47:46.807Z,42.83
2019-02-05T07:50:26.760Z,31.87
2019-02-05T07:52:59.026Z,26.90
2019-02-05T07:55:29.946Z,31.68
2019-02-05T07:58:01.472Z,29.72
2019-02-05T08:00:32.343Z,34.13
2019-02-05T08:03:03.108Z,35.00
2019-02-05T08:05:34.646Z,38.23
2019-02-05T08:08:06.465Z,28.95
2019-02-05T08:10:37.257Z,25.20
2019-02-05T08:13:08.113Z,25.95
2019-02-05T08:15:38.838Z,29.52
2019-02-05T08:18:09.674Z,66.65
2019-02-05T08:20:40.426Z,29.95
2019-02-05T08:23:11.245Z,48.25
2019-02-05T08:25:42.367Z,32.70
2019-02-05T08:28:13.121Z,34.80
2019-02-05T08:30:46.781Z,34.13
2019-02-05T08:33:17.543Z,54.88
2019-02-05T08:35:48.274Z,56.83
2019-02-05T08:38:19.031Z,42.50
2019-02-05T08:40:50.131Z,80.62
2019-02-05T08:43:21.035Z,161.88
2019-02-05T08:45:56.611Z,90.95
2019-02-05T08:48:27.158Z,82.30
2019-02-05T08:50:57.890Z,102.65
2019-02-05T08:53:28.666Z,61.80
2019-02-05T08:55:59.405Z,70.32
2019-02-05T08:58:31.337Z,51.50
2019-02-05T09:01:02.190Z,56.92
2019-02-05T09:03:34.033Z,45.73
2019-02-05T09:06:13.163Z,35.92
2019-02-05T09:08:45.456Z,30.20
2019-02-05T09:11:16.802Z,36.90
2019-02-05T09:13:48.622Z,41.83
2019-02-05T09:16:19.381Z,26.73
2019-02-05T09:18:50.198Z,40.55
2019-02-05T09:21:21.121Z,47.62
2019-02-05T09:23:51.957Z,41.88
2019-02-05T09:26:22.827Z,31.62
2019-02-05T09:28:53.578Z,44.25
2019-02-05T09:31:24.322Z,32.23
2019-02-05T09:33:55.070Z,32.40
2019-02-05T09:36:25.906Z,30.10
2019-02-05T09:38:56.843Z,21.12
2019-02-05T09:41:27.564Z,33.38
2019-02-05T09:43:58.395Z,36.85
2019-02-05T09:46:29.154Z,35.28
2019-02-05T09:48:59.908Z,38.67
2019-02-05T09:51:30.626Z,44.50
2019-02-05T09:54:01.385Z,83.45
2019-02-05T09:56:32.121Z,32.50
2019-02-05T09:59:04.457Z,44.98
2019-02-05T10:01:35.175Z,37.58
2019-02-05T10:04:06.233Z,28.70
2019-02-05T10:06:38.607Z,29.95
2019-02-05T10:09:09.353Z,35.38
2019-02-05T10:11:41.006Z,26.57
2019-02-05T10:14:11.850Z,34.08
2019-02-05T10:16:42.561Z,44.65
2019-02-05T10:19:13.627Z,51.73
2019-02-05T10:21:44.350Z,61.65
2019-02-05T10:24:15.110Z,56.58
2019-02-05T10:26:45.925Z,46.63
2019-02-05T10:29:16.675Z,33.13
2019-02-05T10:31:47.398Z,36.15
2019-02-05T10:34:18.158Z,40.25
2019-02-05T10:36:48.885Z,31.27
2019-02-05T10:39:21.236Z,40.43
2019-02-05T10:41:51.957Z,36.05
2019-02-05T10:44:22.789Z,29.42
2019-02-05T10:46:53.919Z,30.85
2019-02-05T10:49:24.672Z,30.62
2019-02-05T10:51:57.369Z,37.55
2019-02-05T10:54:27.761Z,37.80
2019-02-05T10:56:58.480Z,48.95
2019-02-05T10:59:29.323Z,34.40
2019-02-05T11:02:00.339Z,50.05
2019-02-05T11:04:31.093Z,30.45
2019-02-05T11:07:01.818Z,34.65
2019-02-05T11:09:32.577Z,112.28
2019-02-05T11:12:03.657Z,108.85
2019-02-05T11:14:34.426Z,49.70
2019-02-05T11:17:05.451Z,51.92
2019-02-05T11:19:36.210Z,48.35
2019-02-05T11:22:06.941Z,33.53
2019-02-05T11:24:37.699Z,30.70
2019-02-05T11:27:08.428Z,25.82
2019-02-05T11:29:40.700Z,28.07
2019-02-05T11:32:11.419Z,27.07
2019-02-05T11:34:42.172Z,27.05
2019-02-05T11:37:12.980Z,29.18
2019-02-05T11:39:43.739Z,29.00
2019-02-05T11:42:14.458Z,28.30
2019-02-05T11:44:45.315Z,32.88
2019-02-05T11:47:16.035Z,28.23
2019-02-05T11:49:46.800Z,30.08
2019-02-05T11:52:17.657Z,40.40
2019-02-05T11:54:49.487Z,29.92
2019-02-05T11:57:20.213Z,50.90
2019-02-05T11:59:52.793Z,27.87
2019-02-05T12:02:23.576Z,27.85
2019-02-05T12:04:54.337Z,31.73
2019-02-05T12:07:26.194Z,26.60
2019-02-05T12:09:56.951Z,26.75
2019-02-05T12:12:28.554Z,39.78
2019-02-05T12:14:59.610Z,29.75
2019-02-05T12:17:31.446Z,27.15
2019-02-05T12:20:02.308Z,27.45
2019-02-05T12:22:33.213Z,24.30
2019-02-05T12:25:11.393Z,32.55
2019-02-05T12:27:42.348Z,35.28
2019-02-05T12:30:17.860Z,38.55
2019-02-05T12:32:48.586Z,41.70
2019-02-05T12:35:20.854Z,39.42
2019-02-05T12:37:51.505Z,28.83
2019-02-05T12:40:22.586Z,27.42
2019-02-05T12:42:53.237Z,23.38
2019-02-05T12:45:31.312Z,31.60
2019-02-05T12:48:02.042Z,31.90
2019-02-05T12:50:38.127Z,40.15
2019-02-05T12:53:09.049Z,36.03
2019-02-05T12:55:39.914Z,28.47
2019-02-05T12:58:10.634Z,27.07
2019-02-05T13:00:56.700Z,33.63
2019-02-05T13:03:19.314Z,34.58
2019-02-05T13:05:50.082Z,27.77
2019-02-05T13:08:20.937Z,26.87
2019-02-05T13:10:52.422Z,29.52
2019-02-05T13:13:25.013Z,33.20
2019-02-05T13:15:57.208Z,32.23
2019-02-05T13:18:27.852Z,29.90
2019-02-05T13:20:58.521Z,31.68
2019-02-05T13:23:29.164Z,31.02
2019-02-05T13:25:59.878Z,32.95
2019-02-05T13:28:30.767Z,33.23
2019-02-05T13:31:08.227Z,43.05
2019-02-05T13:33:34.075Z,44.25
2019-02-05T13:36:05.266Z,33.23
2019-02-05T13:38:36.030Z,31.37
2019-02-05T13:41:06.791Z,35.63
2019-02-05T13:43:37.710Z,38.00
2019-02-05T13:46:08.395Z,37.20
2019-02-05T13:48:39.085Z,37.10
2019-02-05T13:51:09.838Z,33.42
2019-02-05T13:53:40.558Z,31.95
2019-02-05T13:56:11.385Z,34.58
2019-02-05T13:58:42.238Z,34.58
2019-02-05T14:01:20.054Z,35.00
2019-02-05T14:03:45.414Z,33.80
2019-02-05T14:06:17.610Z,33.63
2019-02-05T14:08:49.842Z,34.73
2019-02-05T14:11:22.228Z,30.08
2019-02-05T14:13:53.577Z,35.95
2019-02-05T14:16:24.314Z,39.40
2019-02-05T14:18:55.903Z,35.95
2019-02-05T14:21:26.859Z,37.00
2019-02-05T14:23:57.593Z,37.53
2019-02-05T14:26:28.334Z,32.00
2019-02-05T14:28:59.059Z,33.55
2019-02-05T14:31:31.389Z,39.50
2019-02-05T14:34:02.642Z,36.65
2019-02-05T14:36:33.593Z,37.40
2019-02-05T14:39:08.354Z,40.00
2019-02-05T14:41:39.035Z,43.52
2019-02-05T14:44:09.762Z,44.88
2019-02-05T14:46:41.545Z,43.13
2019-02-05T14:49:12.755Z,47.60
2019-02-05T14:51:43.590Z,49.65
2019-02-05T14:54:14.250Z,51.42
2019-02-05T14:56:46.091Z,51.98
2019-02-05T14:59:16.822Z,50.67
2019-02-05T15:01:47.979Z,52.10
2019-02-05T15:04:20.299Z,51.55
2019-02-05T15:06:50.984Z,48.20
2019-02-05T15:09:22.341Z,46.28
2019-02-05T15:11:53.131Z,47.27
2019-02-05T15:14:24.779Z,52.23
2019-02-05T15:16:55.547Z,53.33
2019-02-05T15:19:26.270Z,54.25
2019-02-05T15:21:56.947Z,56.63
2019-02-05T15:24:37.055Z,50.83
2019-02-05T15:27:00.141Z,52.67
2019-02-05T15:29:30.864Z,50.43
2019-02-05T15:32:01.533Z,52.05
2019-02-05T15:34:32.252Z,53.75
2019-02-05T15:37:02.920Z,53.75
2019-02-05T15:39:33.564Z,58.38
2019-02-05T15:42:04.260Z,55.03
2019-02-05T15:44:34.978Z,49.98
2019-02-05T15:47:06.471Z,50.90
2019-02-05T15:49:37.189Z,49.58
2019-02-05T15:52:07.871Z,51.13
2019-02-05T15:54:38.790Z,51.48
2019-02-05T15:57:09.566Z,52.20
2019-02-05T15:59:40.364Z,52.08
2019-02-05T16:02:12.710Z,51.50
2019-02-05T16:04:43.367Z,54.40
2019-02-05T16:07:14.584Z,60.25
2019-02-05T16:09:45.229Z,60.20
2019-02-05T16:12:15.931Z,56.92
2019-02-05T16:14:48.306Z,52.73
2019-02-05T16:17:20.199Z,50.55
2019-02-05T16:19:51.370Z,50.98
2019-02-05T16:22:22.082Z,53.80
2019-02-05T16:24:52.775Z,59.13
2019-02-05T16:27:23.528Z,59.50
2019-02-05T16:29:54.192Z,60.75
2019-02-05T16:32:24.865Z,58.78
2019-02-05T16:34:55.774Z,72.42
2019-02-05T16:37:26.704Z,98.15
2019-02-05T16:39:57.421Z,98.92
2019-02-05T16:42:28.110Z,89.65
2019-02-05T16:44:58.782Z,85.40
2019-02-05T16:47:30.516Z,82.60
2019-02-05T16:50:05.458Z,81.12
2019-02-05T16:52:36.213Z,75.00
2019-02-05T16:55:07.541Z,66.40
2019-02-05T16:57:38.303Z,71.12
2019-02-05T17:00:18.583Z,64.42
2019-02-05T17:02:49.354Z,63.48
2019-02-05T17:05:21.215Z,68.22
2019-02-05T17:07:52.931Z,72.60
2019-02-05T17:10:24.277Z,71.85
2019-02-05T17:12:54.971Z,71.82
2019-02-05T17:15:26.605Z,82.15
2019-02-05T17:17:57.290Z,84.15
2019-02-05T17:20:29.872Z,81.70
2019-02-05T17:23:01.067Z,87.17
2019-02-05T17:25:31.875Z,85.45
2019-02-05T17:28:05.264Z,95.90
2019-02-05T17:30:38.252Z,95.30
2019-02-05T17:33:08.946Z,92.72
2019-02-05T17:35:39.610Z,94.37
2019-02-05T17:38:10.373Z,89.85
2019-02-05T17:40:41.143Z,100.07
2019-02-05T17:43:11.918Z,96.45
2019-02-05T17:45:42.582Z,89.15
2019-02-05T17:48:15.214Z,93.67
2019-02-05T17:50:47.754Z,100.00
2019-02-05T17:53:18.673Z,99.70
2019-02-05T17:55:49.342Z,114.40
2019-02-05T17:58:21.773Z,127.58
2019-02-05T18:00:54.171Z,138.37
2019-02-05T18:03:25.345Z,131.87
2019-02-05T18:05:56.107Z,140.07
2019-02-05T18:08:26.958Z,115.42
2019-02-05T18:10:57.642Z,116.62
2019-02-05T18:13:28.419Z,123.60
2019-02-05T18:16:02.085Z,127.82
2019-02-05T18:18:33.899Z,118.75
2019-02-05T18:21:06.246Z,105.58
2019-02-05T18:23:37.022Z,102.07
2019-02-05T18:26:07.689Z,104.55
2019-02-05T18:28:38.832Z,106.20
2019-02-05T18:31:09.583Z,106.25
2019-02-05T18:33:40.357Z,102.17
2019-02-05T18:36:11.306Z,104.12
2019-02-05T18:38:42.154Z,106.03
2019-02-05T18:41:12.830Z,105.03
2019-02-05T18:43:43.678Z,110.50
2019-02-05T18:46:14.555Z,114.85
2019-02-05T18:48:46.523Z,111.60
2019-02-05T18:51:17.263Z,107.43
2019-02-05T18:53:48.049Z,110.83
2019-02-05T18:56:18.906Z,105.50
2019-02-05T18:58:49.702Z,107.30
2019-02-05T19:01:20.385Z,101.90
2019-02-05T19:03:51.501Z,110.15
2019-02-05T19:06:22.239Z,108.90
2019-02-05T19:08:53.386Z,107.83
2019-02-05T19:11:24.132Z,103.35
2019-02-05T19:13:54.916Z,106.07
2019-02-05T19:16:26.417Z,109.50
2019-02-05T19:18:57.207Z,102.50
2019-02-05T19:21:27.954Z,105.95
2019-02-05T19:24:00.295Z,80.03
2019-02-05T19:26:31.289Z,76.72
2019-02-05T19:29:02.066Z,76.82
2019-02-05T19:31:33.474Z,45.05
2019-02-05T19:34:04.168Z,48.87
2019-02-05T19:36:34.952Z,29.30
2019-02-05T19:39:06.781Z,73.52
2019-02-05T19:41:38.928Z,34.48
2019-02-05T19:44:09.826Z,17.45
2019-02-05T19:46:42.335Z,35.10
2019-02-05T19:49:21.426Z,41.98
2019-02-05T19:51:47.063Z,64.00
2019-02-05T19:54:18.150Z,40.57
2019-02-05T19:56:48.882Z,33.13
2019-02-05T19:59:20.074Z,32.45
2019-02-05T20:01:50.924Z,41.42
2019-02-05T20:04:21.854Z,31.80
2019-02-05T20:06:52.587Z,67.78
2019-02-05T20:09:23.360Z,56.73
2019-02-05T20:11:54.035Z,61.35
2019-02-05T20:14:24.806Z,27.05
2019-02-05T20:16:55.611Z,62.00
2019-02-05T20:19:26.757Z,75.07
2019-02-05T20:21:57.488Z,27.20
2019-02-05T20:24:28.188Z,72.67
2019-02-05T20:26:58.879Z,53.55
2019-02-05T20:29:29.678Z,61.23
2019-02-05T20:32:00.473Z,35.35
2019-02-05T20:34:31.162Z,24.55
2019-02-05T20:37:02.895Z,56.57
2019-02-05T20:39:34.423Z,69.62
2019-02-05T20:42:05.199Z,60.25
2019-02-05T20:44:35.975Z,67.95
2019-02-05T20:47:08.655Z,65.40
2019-02-05T20:49:39.355Z,53.38
2019-02-05T20:52:10.161Z,58.55
2019-02-05T20:54:40.933Z,34.38
2019-02-05T20:57:11.663Z,56.55
2019-02-05T20:59:42.425Z,26.17
2019-02-05T21:02:13.563Z,55.23
2019-02-05T21:04:48.565Z,17.48
2019-02-05T21:07:16.742Z,43.35
2019-02-05T21:09:47.505Z,46.75
2019-02-05T21:12:18.239Z,49.05
2019-02-05T21:14:49.007Z,51.07
2019-02-05T21:17:20.338Z,20.45
2019-02-05T21:19:52.607Z,27.95
2019-02-05T21:22:23.476Z,35.08
2019-02-05T21:24:54.431Z,20.97
2019-02-05T21:27:25.164Z,41.92
2019-02-05T21:29:56.226Z,45.20
2019-02-05T21:32:26.883Z,58.63
2019-02-05T21:34:57.694Z,47.80
2019-02-05T21:37:28.422Z,25.05
2019-02-05T21:40:02.433Z,39.27
2019-02-05T21:42:32.749Z,40.38
2019-02-05T21:45:04.790Z,49.10
2019-02-05T21:47:35.602Z,23.75
2019-02-05T21:50:09.553Z,20.50
2019-02-05T21:52:40.290Z,23.57
2019-02-05T21:55:12.294Z,30.88
2019-02-05T21:57:43.134Z,47.85
2019-02-05T22:00:23.083Z,55.10
2019-02-05T22:02:53.846Z,52.70
2019-02-05T22:05:25.215Z,50.33
2019-02-05T22:07:55.950Z,25.82
2019-02-05T22:10:26.809Z,52.10
2019-02-05T22:12:57.614Z,43.20
2019-02-05T22:15:28.775Z,23.40
2019-02-05T22:18:00.404Z,29.82
2019-02-05T22:20:31.226Z,36.68
2019-02-05T22:23:01.960Z,26.80
2019-02-05T22:25:33.222Z,34.25
2019-02-05T22:28:04.035Z,18.82
2019-02-05T22:30:36.839Z,42.13
2019-02-05T22:33:08.135Z,49.93
2019-02-05T22:35:38.900Z,50.65
2019-02-05T22:38:09.627Z,29.35
2019-02-05T22:40:40.383Z,15.43
2019-02-05T22:43:12.923Z,26.45
2019-02-05T22:45:43.678Z,23.47
2019-02-05T22:48:14.389Z,24.10
2019-02-05T22:50:45.213Z,53.40
2019-02-05T22:53:15.910Z,33.50
2019-02-05T22:55:46.617Z,21.90
2019-02-05T22:58:17.350Z,24.05
2019-02-05T23:00:52.933Z,45.75
2019-02-05T23:03:36.262Z,24.10
2019-02-05T23:06:31.777Z,23.47
2019-02-05T23:09:08.796Z,25.27
2019-02-05T23:11:48.446Z,33.85
2019-02-05T23:14:19.168Z,34.55
2019-02-05T23:16:49.922Z,26.12
2019-02-05T23:19:21.890Z,18.95
2019-02-05T23:21:52.783Z,29.72
2019-02-05T23:24:23.424Z,14.40
2019-02-05T23:26:55.170Z,51.55
2019-02-05T23:29:25.821Z,28.70
2019-02-05T23:31:56.578Z,22.37
2019-02-05T23:34:27.226Z,28.80
2019-02-05T23:36:58.918Z,19.52
2019-02-05T23:39:29.710Z,51.80
2019-02-05T23:42:00.390Z,45.83
2019-02-05T23:44:31.050Z,29.70
2019-02-05T23:47:03.700Z,49.05
2019-02-05T23:49:34.494Z,41.63
2019-02-05T23:52:05.319Z,31.25
2019-02-05T23:55:12.779Z,19.37
2019-02-05T23:57:52.516Z,30.95
